Flight Track Log - Related Links

Times and Time Zones

All times are in EDT time to prevent confusion due to time zone crossing. See the N770NC flight status page for this flight to view local times or setup timezone preferences in your user account.

Time Position Orientation Groundspeed Altitude Reporting Facility
EDT Latitude Longitude Course Direction KTS MPH feet Rate Location/Type
Tue 06:13:01 PM 35.0333 -89.9667 33° Northeast 136 157 1,000  Level KMEM
Tue 06:13:45 PM 35.0000 -89.9667 180° South 207 238 1,600 1,224 Climbing KMEM
Tue 06:14:39 PM 34.9333 -89.9333 158° South 271 312 3,000 1,722 Climbing KMEM
Tue 06:15:33 PM 34.8833 -89.9000 151° Southeast 290 334 4,700 1,986 Climbing KMEM
Tue 06:16:00 PM 35.3526 -89.7239 29° Northeast  Level FlightAware Approximate
Tue 06:16:58 PM 34.9333 -89.8167 54° Northeast 302 348 7,600  Level KMEM
Tue 06:17:00 PM 35.4480 -89.6579 29° Northeast  Level FlightAware Approximate
Tue 06:18:00 PM 35.5411 -89.5872 33° Northeast  Level FlightAware Approximate
Tue 06:18:32 PM 35.0875 -89.7861 North 342 394 11,100  Level Memphis Center
Tue 06:19:32 PM 35.1811 -89.7728 North 349 402 14,400 2,700 Climbing Memphis Center
Tue 06:20:32 PM 35.2792 -89.7567 North 349 402 16,500 2,200 Climbing Memphis Center
Tue 06:21:32 PM 35.3769 -89.7128 20° North 354 407 18,800 2,300 Climbing Memphis Center
Tue 06:22:32 PM 35.4747 -89.6508 27° Northeast 376 433 21,100 1,950 Climbing Memphis Center
Tue 06:23:32 PM 35.5703 -89.5836 30° Northeast 385 443 22,700 1,300 Climbing Memphis Center
Tue 06:24:32 PM 35.6761 -89.5033 32° Northeast 410 472 23,700 1,900 Climbing Memphis Center
Tue 06:25:32 PM 35.7714 -89.4358 30° Northeast 419 482 26,500 2,250 Climbing Memphis Center
Tue 06:26:32 PM 35.8772 -89.3733 26° Northeast 414 476 28,200 1,250 Climbing Memphis Center
Tue 06:27:32 PM 35.9811 -89.3078 27° Northeast 409 471 29,000 400 Climbing Memphis Center
Tue 06:28:32 PM 36.0889 -89.2269 31° Northeast 423 487 29,000  Level Memphis Center
Tue 06:29:32 PM 36.2047 -89.1481 29° Northeast 446 513 29,000  Level Memphis Center
Tue 06:30:32 PM 36.3269 -89.0767 25° Northeast 468 539 29,000  Level Memphis Center
Tue 06:31:32 PM 36.4472 -89.0025 26° Northeast 474 545 29,000  Level Memphis Center
Tue 06:32:32 PM 36.5608 -88.9206 30° Northeast 474 545 29,000  Level Memphis Center
Tue 06:33:32 PM 36.6664 -88.8489 29° Northeast 474 545 29,000  Level Memphis Center
Tue 06:34:32 PM 36.7758 -88.7614 33° Northeast 469 540 29,000  Level Memphis Center
Tue 06:35:32 PM 36.8892 -88.6786 30° Northeast 469 540 29,000  Level Memphis Center
Tue 06:36:32 PM 37.0028 -88.5958 30° Northeast 469 540 29,000  Level Memphis Center
Tue 06:37:32 PM 37.1117 -88.5047 34° Northeast 469 540 29,000  Level Memphis Center
Tue 06:38:32 PM 37.2228 -88.4111 34° Northeast 469 540 29,000  Level Memphis Center
Tue 06:40:08 PM 37.3797 -88.2442 40° Northeast 474 545 29,000  Level Indianapolis Center
Tue 06:41:10 PM 37.4881 -88.1453 36° Northeast 475 547 29,000  Level Indianapolis Center
Tue 06:42:12 PM 37.5942 -88.0433 37° Northeast 472 543 29,000  Level Indianapolis Center
Tue 06:43:14 PM 37.7164 -87.9244 38° Northeast 471 542 29,000  Level Indianapolis Center
Tue 06:44:16 PM 37.8228 -87.8483 29° Northeast 470 541 29,000 -48 Level Indianapolis Center
Tue 06:45:18 PM 37.9386 -87.7703 28° Northeast 468 539 28,900 -629 Descending Indianapolis Center
Tue 06:46:20 PM 38.0622 -87.7181 18° North 465 535 27,700 -919 Descending Indianapolis Center
Tue 06:47:22 PM 38.1850 -87.6675 18° North 460 529 27,000 -339 Descending Indianapolis Center
Tue 06:48:24 PM 38.3069 -87.5558 36° Northeast 463 533 27,000  Level Indianapolis Center
Tue 06:49:26 PM 38.3911 -87.4339 49° Northeast 456 525 27,000  Level Indianapolis Center
Tue 06:50:28 PM 38.4853 -87.3194 44° Northeast 459 528 27,000 48 Level Indianapolis Center
Tue 06:51:30 PM 38.5814 -87.2117 41° Northeast 456 525 27,100  Climbing Indianapolis Center
Tue 06:52:32 PM 38.6925 -87.1375 28° Northeast 447 514 27,000 -48 Descending Indianapolis Center
Tue 06:53:34 PM 38.8075 -87.0656 26° Northeast 454 522 27,000  Level Indianapolis Center
Tue 06:54:36 PM 38.9178 -86.9786 32° Northeast 461 531 27,000  Level Indianapolis Center
Tue 06:55:38 PM 39.0253 -86.8864 34° Northeast 461 531 27,000  Level Indianapolis Center
Tue 06:56:41 PM 39.1486 -86.7889 32° Northeast 454 522 27,000  Level Indianapolis Center
Tue 06:57:43 PM 39.2608 -86.7225 25° Northeast 444 511 27,000  Level Indianapolis Center
Tue 06:58:45 PM 39.3781 -86.6797 16° North 438 504 27,000  Level Indianapolis Center
Tue 06:59:47 PM 39.4897 -86.6161 24° Northeast 436 502 27,000  Level Indianapolis Center
Tue 07:00:49 PM 39.5958 -86.5311 32° Northeast 445 512 27,000  Level Indianapolis Center
Tue 07:01:51 PM 39.7094 -86.4514 28° Northeast 455 524 27,000  Level Indianapolis Center
Tue 07:02:53 PM 39.8256 -86.3586 32° Northeast 482 555 27,000  Level Indianapolis Center
Tue 07:03:55 PM 39.9253 -86.2358 43° Northeast 483 556 27,000  Level Indianapolis Center
Tue 07:04:57 PM 40.0308 -86.0767 49° Northeast 491 565 27,000  Level Indianapolis Center
Tue 07:05:59 PM 40.0878 -85.9164 65° Northeast 489 563 27,000  Level Indianapolis Center
Tue 07:07:01 PM 40.1528 -85.7661 60° Northeast 478 550 27,000  Level Indianapolis Center
Tue 07:08:03 PM 40.2122 -85.6189 62° Northeast 465 535 27,000  Level Indianapolis Center
Tue 07:09:05 PM 40.2758 -85.4786 59° Northeast 452 520 27,000  Level Indianapolis Center
Tue 07:10:07 PM 40.3364 -85.3322 61° Northeast 457 526 27,000 -358 Level Indianapolis Center
Tue 07:11:19 PM 40.4108 -85.1514 62° Northeast 465 535 26,200 -823 Descending Chicago Center
Tue 07:12:11 PM 40.4781 -85.0056 59° Northeast 469 540 25,300 -947 Descending Indianapolis Center
Tue 07:13:13 PM 40.5367 -84.8608 62° Northeast 476 548 24,400 -774 Descending Indianapolis Center
Tue 07:14:15 PM 40.6300 -84.7589 40° Northeast 449 517 23,700 -677 Descending Indianapolis Center
Tue 07:15:17 PM 40.7669 -84.7717 356° North 419 482 23,000 -532 Descending Indianapolis Center
Tue 07:16:19 PM 40.8811 -84.7869 354° North 409 471 22,600 -667 Descending Indianapolis Center
Tue 07:17:32 PM 41.0039 -84.7378 17° North 436 502 21,500 -711 Descending Chicago Center
Tue 07:18:34 PM 41.1025 -84.6564 32° Northeast 424 488 21,000 -242 Descending Chicago Center
Tue 07:19:36 PM 41.2233 -84.5719 28° Northeast 413 475 21,000 48 Level Chicago Center
Tue 07:20:38 PM 41.3200 -84.4917 32° Northeast 413 475 21,100  Climbing Chicago Center
Tue 07:21:40 PM 41.4197 -84.4092 32° Northeast 423 487 21,000 -919 Descending Chicago Center
Tue 07:22:42 PM 41.5225 -84.3411 26° Northeast 417 480 19,200 -2,524 Descending Chicago Center
Tue 07:23:46 PM 41.6297 -84.2672 27° Northeast 361 415 15,700 -3,176 Descending Cleveland Center
Tue 07:24:41 PM 41.7108 -84.2050 30° Northeast 360 414 12,900 -1,914 Descending Cleveland Center
Tue 07:25:42 PM 41.7903 -84.1342 34° Northeast 362 417 12,000 -443 Descending Cleveland Center
Tue 07:26:43 PM 41.8439 -84.0144 59° Northeast 342 394 12,000  Level Cleveland Center
Tue 07:27:43 PM 41.9156 -83.9206 44° Northeast 348 400 12,000  Level Cleveland Center
Tue 07:28:38 PM 41.9864 -83.8461 38° Northeast 356 410 12,000  Level Cleveland Center
Tue 07:29:39 PM 42.0642 -83.7494 43° Northeast 361 415 12,000  Level Cleveland Center
Tue 07:30:40 PM 42.1353 -83.6661 41° Northeast 302 348 12,000  Level Cleveland Center
Tue 07:31:41 PM 42.1933 -83.5989 41° Northeast 260 299 12,000 -492 Level Cleveland Center
Tue 07:32:42 PM 42.2531 -83.5456 33° Northeast 246 283 11,000 -1,701 Descending Cleveland Center
Tue 07:33:48 PM 42.3233 -83.4928 29° Northeast 263 303 8,400 -1,984 Descending Cleveland Center
Tue 07:34:49 PM 42.3769 -83.4361 38° Northeast 248 285 6,800 -1,552 Descending Cleveland Center
Tue 07:35:44 PM 42.4303 -83.3881 34° Northeast 234 269 5,400 -1,096 Descending Cleveland Center
Tue 07:36:44 PM 42.4569 -83.3131 64° Northeast 241 277 4,700 -614 Descending Cleveland Center
Tue 07:37:51 PM 42.4228 -83.2581 130° Southeast 193 222 4,100 -417 Descending Cleveland Center
Tue 07:38:39 PM 42.3811 -83.2647 187° South 180 207 3,900 -250 Descending Cleveland Center

Login

Don't have an account? Register now (free) for customized features, flight alerts, and more!